createdAt,value
2023-03-05T00:01:40.520Z,-1.19
2023-03-05T00:04:12.933Z,-1.21
2023-03-05T00:06:41.311Z,-1.23
2023-03-05T00:09:09.625Z,-1.24
2023-03-05T00:11:38.174Z,-1.25
2023-03-05T00:14:06.759Z,-1.25
2023-03-05T00:16:34.859Z,-1.26
2023-03-05T00:19:03.265Z,-1.23
2023-03-05T00:21:38.110Z,-1.22
2023-03-05T00:24:10.738Z,-1.21
2023-03-05T00:26:39.950Z,-1.20
2023-03-05T00:29:22.029Z,-1.19
2023-03-05T00:31:50.704Z,-1.21
2023-03-05T00:34:19.843Z,-1.24
2023-03-05T00:36:50.980Z,-1.26
2023-03-05T00:39:20.750Z,-1.28
2023-03-05T00:41:49.214Z,-1.30
2023-03-05T00:44:17.558Z,-1.32
2023-03-05T00:46:45.801Z,-1.33
2023-03-05T00:49:13.904Z,-1.35
2023-03-05T00:51:41.986Z,-1.35
2023-03-05T00:54:10.683Z,-1.32
2023-03-05T00:56:38.806Z,-1.28
2023-03-05T00:59:06.874Z,-1.23
2023-03-05T01:01:36.273Z,-1.20
2023-03-05T01:04:04.673Z,-1.18
2023-03-05T01:06:32.717Z,-1.18
2023-03-05T01:09:00.773Z,-1.17
2023-03-05T01:11:28.969Z,-1.17
2023-03-05T01:13:57.010Z,-1.16
2023-03-05T01:16:25.142Z,-1.15
2023-03-05T01:18:53.457Z,-1.14
2023-03-05T01:21:22.170Z,-1.12
2023-03-05T01:23:50.327Z,-1.11
2023-03-05T01:26:18.454Z,-1.07
2023-03-05T01:28:46.659Z,-1.05
2023-03-05T01:31:14.987Z,-1.03
2023-03-05T01:33:45.960Z,-1.01
2023-03-05T01:36:16.929Z,-1.01
2023-03-05T01:38:47.795Z,-1.00
2023-03-05T01:41:17.065Z,-0.99
2023-03-05T01:43:46.723Z,-0.97
2023-03-05T01:46:29.487Z,-0.95
2023-03-05T01:49:13.940Z,-0.92
2023-03-05T01:51:48.146Z,-0.86
2023-03-05T01:54:19.510Z,-0.82
2023-03-05T01:56:50.762Z,-0.76
2023-03-05T01:59:19.624Z,-0.73
2023-03-05T02:01:50.861Z,-0.69
2023-03-05T02:04:21.603Z,-0.66
2023-03-05T02:06:50.612Z,-0.65
2023-03-05T02:09:23.450Z,-0.65
2023-03-05T02:11:52.119Z,-0.67
2023-03-05T02:14:21.149Z,-0.66
2023-03-05T02:16:49.426Z,-0.63
2023-03-05T02:19:17.839Z,-0.61
2023-03-05T02:21:48.462Z,-0.59
2023-03-05T02:24:19.366Z,-0.56
2023-03-05T02:26:47.729Z,-0.51
2023-03-05T02:29:20.789Z,-0.48
2023-03-05T02:31:49.022Z,-0.46
2023-03-05T02:34:17.113Z,-0.45
2023-03-05T02:36:45.182Z,-0.43
2023-03-05T02:39:13.691Z,-0.43
2023-03-05T02:41:41.805Z,-0.43
2023-03-05T02:44:09.920Z,-0.41
2023-03-05T02:46:38.277Z,-0.38
2023-03-05T02:49:06.351Z,-0.36
2023-03-05T02:51:34.374Z,-0.36
2023-03-05T02:54:02.522Z,-0.36
2023-03-05T02:56:30.752Z,-0.38
2023-03-05T02:58:58.780Z,-0.39
2023-03-05T03:01:28.539Z,-0.40
2023-03-05T03:03:56.773Z,-0.39
2023-03-05T03:06:24.940Z,-0.35
2023-03-05T03:08:53.046Z,-0.31
2023-03-05T03:11:21.568Z,-0.26
2023-03-05T03:13:49.748Z,-0.24
2023-03-05T03:16:18.273Z,-0.22
2023-03-05T03:18:48.689Z,-0.20
2023-03-05T03:21:23.453Z,-0.21
2023-03-05T03:23:51.714Z,-0.21
2023-03-05T03:26:20.274Z,-0.20
2023-03-05T03:28:48.335Z,-0.19
2023-03-05T03:31:16.820Z,-0.18
2023-03-05T03:33:45.569Z,-0.15
2023-03-05T03:36:13.810Z,-0.10
2023-03-05T03:38:41.957Z,-0.06
2023-03-05T03:41:10.092Z,-0.02
2023-03-05T03:43:38.328Z,-0.01
2023-03-05T03:46:07.382Z,-0.01
2023-03-05T03:48:36.186Z,-0.03
2023-03-05T03:51:06.295Z,-0.04
2023-03-05T03:53:34.420Z,-0.05
2023-03-05T03:56:03.621Z,-0.06
2023-03-05T03:58:32.323Z,-0.07
2023-03-05T04:01:00.799Z,-0.07
2023-03-05T04:03:29.114Z,-0.05
2023-03-05T04:05:57.280Z,-0.03
2023-03-05T04:08:25.828Z,-0.01
2023-03-05T04:10:53.909Z,0.02
2023-03-05T04:13:21.994Z,0.04
2023-03-05T04:15:50.544Z,0.04
2023-03-05T04:18:18.726Z,0.04
2023-03-05T04:20:46.858Z,0.04
2023-03-05T04:23:15.595Z,0.04
2023-03-05T04:25:44.118Z,0.03
2023-03-05T04:28:12.890Z,0.02
2023-03-05T04:30:41.083Z,0.03
2023-03-05T04:33:09.156Z,0.05
2023-03-05T04:35:37.834Z,0.07
2023-03-05T04:38:06.028Z,0.10
2023-03-05T04:40:34.767Z,0.10
2023-03-05T04:43:03.538Z,0.11
2023-03-05T04:45:31.851Z,0.12
2023-03-05T04:48:00.668Z,0.11
2023-03-05T04:50:28.751Z,0.11
2023-03-05T04:52:56.907Z,0.11
2023-03-05T04:55:24.957Z,0.14
2023-03-05T04:57:53.016Z,0.16
2023-03-05T05:00:21.835Z,0.20
2023-03-05T05:02:51.555Z,0.25
2023-03-05T05:05:23.427Z,0.28
2023-03-05T05:07:56.732Z,0.29
2023-03-05T05:10:26.354Z,0.29
2023-03-05T05:12:54.635Z,0.28
2023-03-05T05:15:23.034Z,0.28
2023-03-05T05:17:51.200Z,0.28
2023-03-05T05:20:20.139Z,0.26
2023-03-05T05:22:48.344Z,0.23
2023-03-05T05:25:16.553Z,0.17
2023-03-05T05:27:44.639Z,0.11
2023-03-05T05:30:13.178Z,0.11
2023-03-05T05:32:41.273Z,0.11
2023-03-05T05:35:10.556Z,0.11
2023-03-05T05:37:38.693Z,0.08
2023-03-05T05:40:09.604Z,-0.03
2023-03-05T05:42:37.842Z,-0.12
2023-03-05T05:45:06.632Z,-0.17
2023-03-05T05:47:34.642Z,-0.21
2023-03-05T05:50:03.243Z,-0.22
2023-03-05T05:52:31.376Z,-0.20
2023-03-05T05:54:59.414Z,-0.17
2023-03-05T05:57:27.469Z,-0.12
2023-03-05T05:59:55.567Z,-0.08
2023-03-05T06:02:23.692Z,-0.11
2023-03-05T06:04:51.819Z,-0.12
2023-03-05T06:07:19.884Z,-0.15
2023-03-05T06:09:48.533Z,-0.16
2023-03-05T06:12:16.817Z,-0.16
2023-03-05T06:14:44.900Z,-0.14
2023-03-05T06:17:16.923Z,-0.10
2023-03-05T06:19:50.038Z,-0.07
2023-03-05T06:22:18.138Z,-0.03
2023-03-05T06:24:46.157Z,-0.03
2023-03-05T06:27:14.236Z,-0.02
2023-03-05T06:29:42.326Z,0.00
2023-03-05T06:32:10.558Z,0.02
2023-03-05T06:34:38.745Z,0.04
2023-03-05T06:37:06.800Z,0.07
2023-03-05T06:39:34.830Z,0.10
2023-03-05T06:42:03.093Z,0.13
2023-03-05T06:44:31.245Z,0.15
2023-03-05T06:46:59.335Z,0.16
2023-03-05T06:49:27.402Z,0.18
2023-03-05T06:51:55.487Z,0.19
2023-03-05T06:54:23.570Z,0.20
2023-03-05T06:56:51.574Z,0.22
2023-03-05T06:59:19.657Z,0.23
2023-03-05T07:01:48.541Z,0.24
2023-03-05T07:04:17.127Z,0.28
2023-03-05T07:06:45.837Z,0.31
2023-03-05T07:09:16.201Z,0.33
2023-03-05T07:11:44.447Z,0.35
2023-03-05T07:14:12.737Z,0.35
2023-03-05T07:16:40.916Z,0.36
2023-03-05T07:19:11.030Z,0.36
2023-03-05T07:21:40.118Z,0.36
2023-03-05T07:24:09.318Z,0.39
2023-03-05T07:26:37.339Z,0.44
2023-03-05T07:29:05.478Z,0.48
2023-03-05T07:31:33.880Z,0.52
2023-03-05T07:34:03.417Z,0.53
2023-03-05T07:36:31.740Z,0.53
2023-03-05T07:38:59.926Z,0.51
2023-03-05T07:41:28.049Z,0.51
2023-03-05T07:43:56.368Z,0.51
2023-03-05T07:46:28.810Z,0.54
2023-03-05T07:48:57.461Z,0.56
2023-03-05T07:51:27.176Z,0.59
2023-03-05T07:53:57.791Z,0.61
2023-03-05T07:56:32.170Z,0.62
2023-03-05T07:59:08.790Z,0.61
2023-03-05T08:01:37.638Z,0.59
2023-03-05T08:04:07.359Z,0.59
2023-03-05T08:06:35.490Z,0.60
2023-03-05T08:09:03.662Z,0.61
2023-03-05T08:11:31.716Z,0.63
2023-03-05T08:14:01.083Z,0.64
2023-03-05T08:16:29.342Z,0.64
2023-03-05T08:18:58.344Z,0.64
2023-03-05T08:21:33.844Z,0.65
2023-03-05T08:24:04.417Z,0.65
2023-03-05T08:26:35.514Z,0.67
2023-03-05T08:29:04.396Z,0.70
2023-03-05T08:31:33.169Z,0.74
2023-03-05T08:34:02.168Z,0.75
2023-03-05T08:36:30.582Z,0.77
2023-03-05T08:38:59.761Z,0.77
2023-03-05T08:41:28.363Z,0.76
2023-03-05T08:43:56.523Z,0.76
2023-03-05T08:46:24.636Z,0.77
2023-03-05T08:48:52.755Z,0.79
2023-03-05T08:51:25.906Z,0.80
2023-03-05T08:53:55.875Z,0.82
2023-03-05T08:56:23.953Z,0.83
2023-03-05T08:58:53.094Z,0.84
2023-03-05T09:01:22.708Z,0.85
2023-03-05T09:03:51.221Z,0.88
2023-03-05T09:06:19.508Z,0.92
2023-03-05T09:08:47.598Z,0.98
2023-03-05T09:11:15.784Z,1.03
2023-03-05T09:13:44.093Z,1.07
2023-03-05T09:16:15.656Z,1.11
2023-03-05T09:18:44.420Z,1.13
2023-03-05T09:21:17.091Z,1.15
2023-03-05T09:23:47.320Z,1.18
2023-03-05T09:26:19.443Z,1.21
2023-03-05T09:28:48.490Z,1.25
2023-03-05T09:31:17.946Z,1.31
2023-03-05T09:33:49.494Z,1.37
2023-03-05T09:36:27.431Z,1.43
2023-03-05T09:38:55.869Z,1.47
2023-03-05T09:41:45.720Z,1.51
2023-03-05T09:44:23.840Z,1.52
2023-03-05T09:46:56.919Z,1.48
2023-03-05T09:49:40.028Z,1.46
2023-03-05T09:52:38.294Z,1.47
2023-03-05T09:55:42.676Z,1.51
2023-03-05T09:58:35.951Z,1.55
2023-03-05T10:01:19.165Z,1.56
2023-03-05T10:04:25.670Z,1.53
2023-03-05T10:07:04.433Z,1.53
2023-03-05T10:10:03.036Z,1.54
2023-03-05T10:12:42.472Z,1.57
2023-03-05T10:15:16.982Z,1.61
2023-03-05T10:17:59.491Z,1.68
2023-03-05T10:20:50.518Z,1.75
2023-03-05T10:23:25.511Z,1.81
2023-03-05T10:26:12.892Z,1.85
2023-03-05T10:29:10.322Z,1.88
2023-03-05T10:31:50.917Z,1.93
2023-03-05T10:35:00.841Z,1.97
2023-03-05T10:37:34.761Z,1.93
2023-03-05T10:40:18.820Z,1.89
2023-03-05T10:43:03.470Z,1.84
2023-03-05T10:45:37.181Z,1.83
2023-03-05T10:48:12.858Z,1.84
2023-03-05T10:50:55.288Z,1.87
2023-03-05T10:53:32.513Z,1.90
2023-03-05T10:56:05.901Z,1.92
2023-03-05T10:58:34.140Z,1.94
2023-03-05T11:01:11.059Z,1.94
2023-03-05T11:03:48.389Z,1.94
2023-03-05T11:06:31.002Z,1.95
2023-03-05T11:09:18.124Z,1.96
2023-03-05T11:12:11.541Z,2.00
2023-03-05T11:14:59.407Z,2.00
2023-03-05T11:17:30.479Z,2.02
2023-03-05T11:20:27.205Z,2.08
2023-03-05T11:23:16.155Z,2.11
2023-03-05T11:25:56.455Z,2.14
2023-03-05T11:28:38.022Z,2.15
2023-03-05T11:31:16.628Z,2.17
2023-03-05T11:33:58.802Z,2.16
2023-03-05T11:36:26.975Z,2.12
2023-03-05T11:38:56.867Z,2.09
2023-03-05T11:41:30.714Z,2.05
2023-03-05T11:44:03.874Z,2.01
2023-03-05T11:46:41.530Z,1.98
2023-03-05T11:49:25.238Z,1.99
2023-03-05T11:52:02.360Z,2.02
2023-03-05T11:54:42.545Z,2.03
2023-03-05T11:57:15.304Z,2.08
2023-03-05T11:59:44.159Z,2.13
2023-03-05T12:02:20.997Z,2.17
2023-03-05T12:04:50.560Z,2.20
2023-03-05T12:07:34.445Z,2.19
2023-03-05T12:10:03.050Z,2.19
2023-03-05T12:12:42.130Z,2.18
2023-03-05T12:15:12.323Z,2.16
2023-03-05T12:18:15.855Z,2.17
2023-03-05T12:21:05.663Z,2.18
2023-03-05T12:24:25.489Z,2.18
2023-03-05T12:27:03.986Z,2.17
2023-03-05T12:29:45.798Z,2.17
2023-03-05T12:32:23.122Z,2.15
2023-03-05T12:35:05.995Z,2.15
2023-03-05T12:37:34.125Z,2.14
2023-03-05T12:40:20.672Z,2.16
2023-03-05T12:42:56.900Z,2.16
2023-03-05T12:45:35.066Z,2.13
2023-03-05T12:48:14.577Z,2.08
2023-03-05T12:50:50.272Z,2.01
2023-03-05T12:53:21.224Z,1.86
2023-03-05T12:56:22.516Z,1.61
2023-03-05T12:58:58.087Z,1.27
2023-03-05T13:01:33.211Z,1.02
2023-03-05T13:04:17.932Z,0.88
2023-03-05T13:07:02.947Z,0.80
2023-03-05T13:09:36.911Z,0.96
2023-03-05T13:12:29.082Z,1.08
2023-03-05T13:42:36.691Z,1.83
2023-03-05T13:46:21.581Z,1.88
2023-03-05T13:56:15.845Z,2.01
2023-03-05T13:58:53.476Z,2.08
2023-03-05T14:01:24.819Z,2.14
2023-03-05T14:03:56.867Z,2.17
2023-03-05T14:06:28.481Z,2.15
2023-03-05T14:09:07.000Z,2.14
2023-03-05T14:11:36.080Z,2.09
2023-03-05T14:14:14.890Z,1.98
2023-03-05T14:16:43.456Z,1.87
2023-03-05T14:19:37.808Z,1.73
2023-03-05T14:22:06.784Z,1.59
2023-03-05T14:24:35.036Z,1.52
2023-03-05T14:27:13.447Z,1.40
2023-03-05T14:29:46.631Z,1.32
2023-03-05T14:32:29.661Z,1.27
2023-03-05T14:35:02.643Z,1.20
2023-03-05T14:37:42.261Z,1.15
2023-03-05T14:40:13.132Z,1.14
2023-03-05T14:42:41.280Z,1.13
2023-03-05T14:45:18.902Z,1.10
2023-03-05T14:47:47.686Z,1.12
2023-03-05T14:50:19.415Z,1.13
2023-03-05T14:52:50.165Z,1.13
2023-03-05T14:55:21.922Z,1.16
2023-03-05T14:57:51.757Z,1.17
2023-03-05T15:00:24.174Z,1.20
2023-03-05T15:02:52.822Z,1.21
2023-03-05T15:05:21.439Z,1.26
2023-03-05T15:07:51.508Z,1.30
2023-03-05T15:10:23.303Z,1.32
2023-03-05T15:12:53.344Z,1.34
2023-03-05T15:15:30.428Z,1.35
2023-03-05T15:17:58.830Z,1.32
2023-03-05T15:20:29.341Z,1.33
2023-03-05T15:22:59.332Z,1.30
2023-03-05T15:25:28.886Z,1.29
2023-03-05T15:27:59.172Z,1.27
2023-03-05T15:30:47.609Z,1.26
2023-03-05T15:33:27.060Z,1.23
2023-03-05T15:36:08.944Z,1.21
2023-03-05T15:38:39.913Z,1.19
2023-03-05T15:41:09.232Z,1.19
2023-03-05T15:43:38.342Z,1.19
2023-03-05T15:46:07.172Z,1.20
2023-03-05T15:48:35.350Z,1.20
2023-03-05T15:51:07.174Z,1.21
2023-03-05T15:53:35.412Z,1.20
2023-03-05T15:56:03.503Z,1.18
2023-03-05T15:58:31.621Z,1.16
2023-03-05T16:00:59.961Z,1.13
2023-03-05T16:03:28.383Z,1.11
2023-03-05T16:05:56.781Z,1.07
2023-03-05T16:08:25.067Z,1.03
2023-03-05T16:10:55.088Z,1.00
2023-03-05T16:13:28.254Z,0.96
2023-03-05T16:15:58.146Z,0.89
2023-03-05T16:18:26.889Z,0.85
2023-03-05T16:20:55.684Z,0.78
2023-03-05T16:23:24.953Z,0.74
2023-03-05T16:26:06.236Z,0.71
2023-03-05T16:28:35.397Z,0.67
2023-03-05T16:31:04.210Z,0.63
2023-03-05T16:33:33.041Z,0.60
2023-03-05T16:36:19.736Z,0.57
2023-03-05T16:38:51.261Z,0.54
2023-03-05T16:41:23.192Z,0.52
2023-03-05T16:43:56.521Z,0.51
2023-03-05T16:46:29.928Z,0.51
2023-03-05T16:48:58.448Z,0.48
2023-03-05T16:51:28.380Z,0.47
2023-03-05T16:53:58.131Z,0.46
2023-03-05T16:56:28.000Z,0.43
2023-03-05T16:58:56.592Z,0.40
2023-03-05T17:01:24.901Z,0.37
2023-03-05T17:03:54.321Z,0.33
2023-03-05T17:06:30.548Z,0.29
2023-03-05T17:09:02.572Z,0.25
2023-03-05T17:11:31.309Z,0.24
2023-03-05T17:13:59.593Z,0.25
2023-03-05T17:16:27.966Z,0.25
2023-03-05T17:19:47.053Z,0.23
2023-03-05T17:27:24.791Z,0.13
2023-03-05T17:30:10.302Z,0.07
2023-03-05T17:32:41.573Z,0.07
2023-03-05T17:35:29.624Z,0.04
2023-03-05T17:37:58.512Z,-0.00
2023-03-05T17:40:30.224Z,-0.05
2023-03-05T17:43:03.230Z,-0.09
2023-03-05T17:45:32.049Z,-0.14
2023-03-05T17:48:01.641Z,-0.17
2023-03-05T17:50:30.056Z,-0.20
2023-03-05T17:52:58.240Z,-0.21
2023-03-05T17:55:27.015Z,-0.24
2023-03-05T17:57:55.639Z,-0.26
2023-03-05T18:00:25.697Z,-0.28
2023-03-05T18:02:54.453Z,-0.32
2023-03-05T18:05:24.759Z,-0.37
2023-03-05T18:07:53.589Z,-0.41
2023-03-05T18:10:24.237Z,-0.46
2023-03-05T18:12:53.778Z,-0.48
2023-03-05T18:15:24.104Z,-0.51
2023-03-05T18:17:52.757Z,-0.56
2023-03-05T18:20:27.550Z,-0.60
2023-03-05T18:22:56.466Z,-0.63
2023-03-05T18:25:31.215Z,-0.66
2023-03-05T18:28:08.922Z,-0.68
2023-03-05T18:30:37.945Z,-0.68
2023-03-05T18:33:08.031Z,-0.67
2023-03-05T18:35:36.668Z,-0.66
2023-03-05T18:38:04.814Z,-0.67
2023-03-05T18:40:35.914Z,-0.67
2023-03-05T18:43:04.438Z,-0.69
2023-03-05T18:45:34.328Z,-0.71
2023-03-05T18:48:02.478Z,-0.74
2023-03-05T18:50:30.812Z,-0.79
2023-03-05T18:52:58.995Z,-0.83
2023-03-05T18:55:30.007Z,-0.88
2023-03-05T18:57:58.324Z,-0.94
2023-03-05T19:00:29.544Z,-0.99
2023-03-05T19:02:58.902Z,-1.03
2023-03-05T19:05:27.116Z,-1.06
2023-03-05T19:07:56.658Z,-1.07
2023-03-05T19:10:24.900Z,-1.07
2023-03-05T19:13:05.741Z,-1.08
2023-03-05T19:15:34.229Z,-1.08
2023-03-05T19:18:02.490Z,-1.10
2023-03-05T19:20:30.617Z,-1.13
2023-03-05T19:22:58.817Z,-1.17
2023-03-05T19:25:26.873Z,-1.20
2023-03-05T19:27:55.183Z,-1.22
2023-03-05T19:30:23.487Z,-1.23
2023-03-05T19:32:54.603Z,-1.25
2023-03-05T19:35:22.972Z,-1.28
2023-03-05T19:37:51.326Z,-1.31
2023-03-05T19:40:19.648Z,-1.32
2023-03-05T19:42:47.780Z,-1.32
2023-03-05T19:45:16.123Z,-1.30
2023-03-05T19:47:44.258Z,-1.29
2023-03-05T19:50:15.226Z,-1.30
2023-03-05T19:52:43.309Z,-1.31
2023-03-05T19:55:11.897Z,-1.35
2023-03-05T19:57:40.061Z,-1.38
2023-03-05T20:00:09.165Z,-1.41
2023-03-05T20:02:37.412Z,-1.44
2023-03-05T20:05:05.980Z,-1.47
2023-03-05T20:07:34.192Z,-1.51
2023-03-05T20:10:02.579Z,-1.53
2023-03-05T20:12:31.248Z,-1.55
2023-03-05T20:14:59.845Z,-1.55
2023-03-05T20:17:30.462Z,-1.55
2023-03-05T20:20:00.441Z,-1.56
2023-03-05T20:22:34.072Z,-1.57
2023-03-05T20:25:02.610Z,-1.58
2023-03-05T20:27:30.723Z,-1.61
2023-03-05T20:29:58.897Z,-1.64
2023-03-05T20:32:27.217Z,-1.67
2023-03-05T20:34:56.717Z,-1.71
2023-03-05T20:37:31.622Z,-1.76
2023-03-05T20:40:00.604Z,-1.79
2023-03-05T20:42:29.238Z,-1.82
2023-03-05T20:44:57.351Z,-1.84
2023-03-05T20:47:40.652Z,-1.84
2023-03-05T20:50:10.251Z,-1.83
2023-03-05T20:52:38.746Z,-1.81
2023-03-05T20:55:08.993Z,-1.82
2023-03-05T20:57:37.256Z,-1.83
2023-03-05T21:00:07.638Z,-1.84
2023-03-05T21:02:36.059Z,-1.86
2023-03-05T21:05:04.576Z,-1.88
2023-03-05T21:07:32.843Z,-1.89
2023-03-05T21:10:01.044Z,-1.91
2023-03-05T21:12:30.008Z,-1.94
2023-03-05T21:14:58.486Z,-1.97
2023-03-05T21:17:26.610Z,-1.99
2023-03-05T21:19:54.782Z,-1.99
2023-03-05T21:22:23.065Z,-1.99
2023-03-05T21:25:12.569Z,-2.01
2023-03-05T21:27:40.815Z,-2.03
2023-03-05T21:30:10.526Z,-2.05
2023-03-05T21:32:38.791Z,-2.07
2023-03-05T21:35:07.458Z,-2.08
2023-03-05T21:37:42.451Z,-2.11
2023-03-05T21:40:14.135Z,-2.13
2023-03-05T21:42:43.921Z,-2.16
2023-03-05T21:45:22.827Z,-2.15
2023-03-05T21:47:52.767Z,-2.14
2023-03-05T21:50:21.221Z,-2.12
2023-03-05T21:52:50.437Z,-2.14
2023-03-05T21:55:22.767Z,-2.15
2023-03-05T21:57:50.980Z,-2.16
2023-03-05T22:00:22.742Z,-2.18
2023-03-05T22:02:51.021Z,-2.20
2023-03-05T22:05:19.367Z,-2.22
2023-03-05T22:07:47.425Z,-2.23
2023-03-05T22:10:18.240Z,-2.22
2023-03-05T22:13:11.427Z,-2.22
2023-03-05T22:15:51.118Z,-2.21
2023-03-05T22:18:29.953Z,-2.21
2023-03-05T22:20:59.597Z,-2.22
2023-03-05T22:23:34.620Z,-2.23
2023-03-05T22:26:07.964Z,-2.24
2023-03-05T22:28:38.947Z,-2.26
2023-03-05T22:31:07.388Z,-2.30
2023-03-05T22:33:35.858Z,-2.31
2023-03-05T22:36:09.398Z,-2.32
2023-03-05T22:38:37.633Z,-2.31
2023-03-05T22:41:10.924Z,-2.30
2023-03-05T22:43:39.637Z,-2.30
2023-03-05T22:46:12.278Z,-2.30
2023-03-05T22:48:40.838Z,-2.31
2023-03-05T22:51:09.865Z,-2.35
2023-03-05T22:53:39.034Z,-2.38
2023-03-05T22:56:09.246Z,-2.39
2023-03-05T22:58:38.122Z,-2.40
2023-03-05T23:01:14.735Z,-2.37
2023-03-05T23:03:43.284Z,-2.37
2023-03-05T23:06:11.650Z,-2.38
2023-03-05T23:08:39.750Z,-2.38
2023-03-05T23:11:11.506Z,-2.39
2023-03-05T23:13:40.873Z,-2.41
2023-03-05T23:16:09.849Z,-2.42
2023-03-05T23:18:38.329Z,-2.43
2023-03-05T23:21:06.774Z,-2.42
2023-03-05T23:23:35.037Z,-2.41
2023-03-05T23:26:03.157Z,-2.39
2023-03-05T23:28:31.455Z,-2.39
2023-03-05T23:30:59.520Z,-2.39
2023-03-05T23:33:27.605Z,-2.41
2023-03-05T23:35:58.457Z,-2.43
2023-03-05T23:38:29.014Z,-2.46
2023-03-05T23:41:01.151Z,-2.46
2023-03-05T23:43:30.751Z,-2.44
2023-03-05T23:46:00.526Z,-2.42
2023-03-05T23:48:30.891Z,-2.41
2023-03-05T23:50:58.995Z,-2.42
2023-03-05T23:53:29.631Z,-2.41
2023-03-05T23:55:57.671Z,-2.43
2023-03-05T23:58:26.040Z,-2.44
